FR-0239 weather

Refuge Du Requin Heliport
Chamonix, Rhône Alpes, France

Public forecast

Using degrees Celsius for public forecast. Weather courtesy of forecast.io.

METAR (pilot weather report)

Closest report is Aosta Airport, 20.3 nm (37.7 km) ESE. Retrieved 2019/07/18 15:20 UTC (0 seconds ago):

LIMW 181520Z AUTO 11018KT 9999 NCD 28/13 Q1011

TAF (pilot weather forecast)

Closest forecast is Annecy-Haute-Savoie-Mont Blanc Airport, 34.5 nm (64.0 km) W. Retrieved 2019/07/18 15:00 UTC (15 minutes ago):

TAF LFLP 181400Z 1815/1915 34006KT CAVOK BECMG 1818/1820 VRB02KT TEMPO 1912/1915 24006KT